Time;durP1;ratioP1;P1;durP2;ratioP2;P2;SDS_P1;SDS_P2;PMS_P1;PMS_P2;Temp;Humidity;BMP_temperature;BMP_pressure;BME280_temperature;BME280_humidity;BME280_pressure;Samples;Min_cycle;Max_cycle;Signal;HPM_P1;HPM_P2
2023/09/26 00:01:19;;;;;;;1.05;1.05;;;;;;;10.96;92.45;99169.41;4156241;28;20206;-47
2023/09/26 00:03:21;;;;;;;0.93;0.85;;;;;;;11.02;93.05;99162.13;4156914;28;20228;-48
2023/09/26 00:05:23;;;;;;;1.73;1.13;;;;;;;11.02;92.87;99162.97;4152499;28;20244;-47
2023/09/26 00:07:27;;;;;;;0.90;0.90;;;;;;;11.16;93.51;99167.16;4157416;28;20204;-49
2023/09/26 00:09:30;;;;;;;1.23;1.13;;;;;;;11.03;95.19;99169.31;4159135;28;20220;-48
2023/09/26 00:11:34;;;;;;;1.25;1.20;;;;;;;11.01;94.39;99172.25;4171698;28;20316;-49
2023/09/26 00:13:35;;;;;;;0.90;0.88;;;;;;;11.05;94.61;99175.38;4156339;28;20270;-47
2023/09/26 00:15:37;;;;;;;1.20;1.10;;;;;;;11.10;93.99;99172.75;4139878;28;22637;-49
2023/09/26 00:17:39;;;;;;;1.00;1.00;;;;;;;11.15;93.67;99173.69;4157119;28;20626;-49
2023/09/26 00:19:41;;;;;;;1.55;1.13;;;;;;;11.15;93.16;99173.69;4172887;28;20266;-51
2023/09/26 00:21:43;;;;;;;1.02;1.02;;;;;;;11.12;92.49;99168.69;4172534;28;20278;-49
2023/09/26 00:23:45;;;;;;;0.93;0.93;;;;;;;11.02;92.20;99173.09;4159490;28;20215;-49
2023/09/26 00:25:46;;;;;;;1.85;1.33;;;;;;;11.00;91.96;99172.50;4152171;28;20274;-47
2023/09/26 00:27:49;;;;;;;0.80;0.80;;;;;;;10.99;91.40;99174.41;4155000;28;20223;-47
2023/09/26 00:29:51;;;;;;;0.90;0.90;;;;;;;10.92;91.27;99168.19;4161051;28;20714;-47
2023/09/26 00:31:53;;;;;;;1.33;1.17;;;;;;;10.94;91.56;99165.22;4160625;28;20217;-46
2023/09/26 00:33:54;;;;;;;1.30;1.20;;;;;;;10.92;91.20;99168.19;4160197;28;20470;-47
2023/09/26 00:35:58;;;;;;;1.10;1.10;;;;;;;10.84;91.75;99165.81;4161656;28;20236;-47
2023/09/26 00:38:00;;;;;;;1.08;1.08;;;;;;;10.76;91.87;99168.03;4159802;28;20212;-50
2023/09/26 00:40:02;;;;;;;0.77;0.77;;;;;;;10.72;92.00;99171.50;4158324;28;20673;-50
2023/09/26 00:42:04;;;;;;;0.73;0.70;;;;;;;10.69;92.14;99166.50;4156743;28;20212;-49
2023/09/26 00:44:07;;;;;;;0.90;0.90;;;;;;;10.67;92.11;99174.13;4173736;28;21059;-46
2023/09/26 00:46:09;;;;;;;3.15;1.25;;;;;;;10.68;92.36;99171.13;4156011;28;20356;-49
2023/09/26 00:48:11;;;;;;;0.90;0.90;;;;;;;10.68;92.15;99173.03;4151893;28;20636;-50
2023/09/26 00:50:13;;;;;;;0.80;0.80;;;;;;;10.71;92.05;99180.78;4137317;28;20296;-46
2023/09/26 00:52:15;;;;;;;0.95;0.90;;;;;;;10.73;91.64;99173.16;4155504;28;20208;-48
2023/09/26 00:54:18;;;;;;;5.22;1.17;;;;;;;10.70;91.75;99184.59;4156724;28;20715;-49
2023/09/26 00:56:20;;;;;;;1.10;1.00;;;;;;;10.65;91.57;99168.03;4156327;28;20233;-48
2023/09/26 00:58:22;;;;;;;1.75;1.65;;;;;;;10.53;91.16;99178.09;4153245;28;20232;-47
2023/09/26 01:00:25;;;;;;;1.05;1.05;;;;;;;10.54;91.88;99179.78;4168738;28;20211;-51
2023/09/26 01:02:27;;;;;;;1.27;0.90;;;;;;;10.43;91.69;99172.38;4151745;28;20340;-51
2023/09/26 01:04:29;;;;;;;0.85;0.85;;;;;;;10.39;91.50;99176.63;4151068;28;20212;-49
2023/09/26 01:06:30;;;;;;;1.45;1.20;;;;;;;10.34;91.84;99180.06;4155945;28;21191;-48
2023/09/26 01:08:32;;;;;;;1.27;1.20;;;;;;;10.39;92.33;99171.16;4155824;28;20216;-47
2023/09/26 01:10:36;;;;;;;0.93;0.93;;;;;;;10.36;92.39;99171.63;4140166;28;20697;-47
2023/09/26 01:12:39;;;;;;;1.45;1.35;;;;;;;10.29;92.56;99171.72;4153825;28;20209;-49
2023/09/26 01:14:41;;;;;;;6.38;1.10;;;;;;;10.28;92.26;99177.44;4155996;28;20223;-46
2023/09/26 01:16:42;;;;;;;0.80;0.80;;;;;;;10.28;92.59;99169.25;4170998;28;20223;-48
2023/09/26 01:18:45;;;;;;;1.08;0.90;;;;;;;10.34;92.68;99165.56;4172009;28;20745;-47
2023/09/26 01:20:47;;;;;;;0.80;0.80;;;;;;;10.16;91.92;99165.63;4171604;28;20251;-48
2023/09/26 01:22:49;;;;;;;2.05;1.25;;;;;;;10.14;92.44;99167.75;4155413;28;20215;-51
2023/09/26 01:24:52;;;;;;;1.20;1.20;;;;;;;10.16;92.47;99162.88;4158073;28;20642;-49
2023/09/26 01:26:55;;;;;;;1.25;0.90;;;;;;;10.16;92.50;99154.69;4172159;28;20204;-50
2023/09/26 01:28:57;;;;;;;0.70;0.70;;;;;;;10.10;92.86;99159.19;4155279;28;20663;-48
2023/09/26 01:30:58;;;;;;;1.45;1.33;;;;;;;10.11;92.93;99163.59;4171463;28;21571;-50
2023/09/26 01:33:02;;;;;;;1.00;1.00;;;;;;;10.09;93.21;99160.22;4152468;28;20292;-50
2023/09/26 01:35:04;;;;;;;1.20;1.10;;;;;;;10.11;92.70;99162.72;4156632;28;20654;-49
2023/09/26 01:37:06;;;;;;;1.52;1.42;;;;;;;10.16;92.58;99160.16;4171504;28;20647;-51
2023/09/26 01:39:08;;;;;;;1.20;1.17;;;;;;;10.23;92.81;99156.25;4171740;28;20204;-48
2023/09/26 01:41:11;;;;;;;0.90;0.90;;;;;;;10.18;92.17;99158.00;4153035;28;20665;-47
2023/09/26 01:43:12;;;;;;;1.50;1.00;;;;;;;10.21;92.26;99157.56;4172067;28;20236;-47
2023/09/26 01:45:17;;;;;;;1.67;1.05;;;;;;;10.05;92.21;99158.19;4156040;28;20224;-49
2023/09/26 01:47:42;;;;;;;1.05;1.05;;;;;;;10.02;92.48;99153.97;4153956;28;20213;-49
2023/09/26 01:49:44;;;;;;;0.73;0.73;;;;;;;10.00;92.63;99149.81;4138244;28;20213;-48
2023/09/26 01:51:46;;;;;;;0.98;0.98;;;;;;;9.99;91.74;99148.13;4156036;28;20213;-50
2023/09/26 01:53:48;;;;;;;1.65;1.33;;;;;;;9.98;92.26;99141.00;4154889;28;20205;-49
2023/09/26 01:55:50;;;;;;;0.80;0.80;;;;;;;9.94;92.37;99139.81;4138566;28;20243;-48
2023/09/26 01:57:52;;;;;;;0.95;0.95;;;;;;;9.92;92.03;99144.66;4139127;28;20216;-48
2023/09/26 01:59:54;;;;;;;1.02;1.02;;;;;;;9.88;92.32;99130.63;4155494;28;20204;-49
2023/09/26 02:01:56;;;;;;;0.90;0.90;;;;;;;9.88;92.30;99141.56;4155664;28;20212;-47
2023/09/26 02:03:57;;;;;;;1.08;1.08;;;;;;;9.83;92.02;99137.84;4154699;28;20722;-51
2023/09/26 02:05:59;;;;;;;1.52;1.42;;;;;;;9.80;92.52;99133.66;4152903;28;20271;-47
2023/09/26 02:08:01;;;;;;;1.30;0.98;;;;;;;9.79;92.46;99137.47;4156388;28;20653;-47
2023/09/26 02:10:04;;;;;;;1.00;1.00;;;;;;;9.72;92.17;99142.19;4155162;28;20220;-47
2023/09/26 02:12:07;;;;;;;1.33;1.23;;;;;;;9.66;92.96;99137.63;4154520;28;20208;-47
2023/09/26 02:14:09;;;;;;;2.08;1.25;;;;;;;9.63;93.10;99145.47;4153137;28;20295;-47
2023/09/26 02:16:11;;;;;;;1.42;1.35;;;;;;;9.64;93.53;99138.94;4154546;28;20659;-48
2023/09/26 02:18:14;;;;;;;0.93;0.93;;;;;;;9.60;93.64;99143.16;4155288;28;20964;-47
2023/09/26 02:20:17;;;;;;;1.20;1.10;;;;;;;9.62;94.05;99124.66;4153804;28;20201;-46
2023/09/26 02:22:19;;;;;;;2.05;1.10;;;;;;;9.64;94.22;99138.94;4155391;28;20240;-48
2023/09/26 02:24:21;;;;;;;1.30;1.10;;;;;;;9.64;94.26;99130.72;4138726;28;20206;-47
2023/09/26 02:26:23;;;;;;;1.30;1.13;;;;;;;9.64;94.44;99133.47;4157749;28;20307;-49
2023/09/26 02:28:24;;;;;;;1.48;1.38;;;;;;;9.59;94.56;99133.31;4159448;28;20619;-46
2023/09/26 02:30:28;;;;;;;1.40;1.30;;;;;;;9.66;94.68;99136.78;4159552;28;20208;-46
2023/09/26 02:32:32;;;;;;;1.00;1.00;;;;;;;9.61;94.96;99133.94;4160471;28;20633;-47
2023/09/26 02:34:34;;;;;;;1.55;1.45;;;;;;;9.64;95.28;99138.94;4171904;28;20619;-48
2023/09/26 02:36:36;;;;;;;1.35;1.35;;;;;;;9.57;95.24;99129.97;4155705;28;20306;-48
2023/09/26 02:38:40;;;;;;;1.02;1.02;;;;;;;9.54;94.85;99131.25;4153202;28;20788;-47
2023/09/26 02:40:42;;;;;;;1.13;1.13;;;;;;;9.61;95.04;99136.66;4170507;28;20262;-47
2023/09/26 02:42:44;;;;;;;1.00;1.00;;;;;;;9.63;95.12;99131.81;4173075;28;20207;-50
2023/09/26 02:44:46;;;;;;;1.02;1.02;;;;;;;9.59;94.71;99142.34;4159881;28;20216;-51
2023/09/26 02:46:48;;;;;;;1.25;1.25;;;;;;;9.55;94.21;99135.66;4144438;28;20210;-48
2023/09/26 02:48:50;;;;;;;1.30;1.20;;;;;;;9.55;94.04;99134.84;4159875;28;20200;-50
2023/09/26 02:50:52;;;;;;;0.85;0.85;;;;;;;9.60;94.25;99133.09;4157541;28;20237;-49
2023/09/26 02:52:54;;;;;;;1.02;1.02;;;;;;;9.55;94.13;99129.38;4171729;28;20290;-46
2023/09/26 02:54:55;;;;;;;1.00;1.00;;;;;;;9.55;93.67;99130.19;4157659;28;20781;-47
2023/09/26 02:56:58;;;;;;;1.52;1.42;;;;;;;9.52;93.28;99130.66;4156529;28;20221;-46
2023/09/26 02:59:00;;;;;;;1.08;1.08;;;;;;;9.53;93.44;99126.03;4158057;28;20867;-47
2023/09/26 03:01:03;;;;;;;0.95;0.95;;;;;;;9.48;93.28;99128.63;4156775;28;20224;-48
2023/09/26 03:03:05;;;;;;;1.15;1.10;;;;;;;9.44;93.17;99124.66;4157012;28;20329;-47
2023/09/26 03:05:09;;;;;;;1.08;1.08;;;;;;;9.31;92.99;99122.94;4157554;28;20275;-49
2023/09/26 03:07:11;;;;;;;0.90;0.90;;;;;;;9.31;93.38;99125.66;4173911;28;20349;-47
2023/09/26 03:09:15;;;;;;;1.38;1.38;;;;;;;9.28;93.20;99117.09;4158421;28;20206;-48
2023/09/26 03:11:16;;;;;;;1.60;0.90;;;;;;;9.27;93.67;99121.72;4172671;28;20208;-48
2023/09/26 03:13:18;;;;;;;0.93;0.93;;;;;;;9.20;93.36;99114.63;4173565;28;20215;-46
2023/09/26 03:15:20;;;;;;;0.80;0.80;;;;;;;9.26;93.44;99119.19;4157834;28;20311;-46
2023/09/26 03:17:22;;;;;;;1.13;1.08;;;;;;;9.24;93.17;99121.31;4158197;28;20302;-47
2023/09/26 03:19:24;;;;;;;0.90;0.90;;;;;;;9.27;93.45;99120.84;4157375;28;20269;-47
2023/09/26 03:21:25;;;;;;;0.95;0.95;;;;;;;9.22;93.34;99127.00;4158237;28;20729;-49
2023/09/26 03:23:27;;;;;;;0.90;0.90;;;;;;;9.20;93.31;99114.63;4157585;28;20223;-47
2023/09/26 03:25:32;;;;;;;1.23;1.17;;;;;;;9.13;93.19;99113.88;4152957;28;22269;-46
2023/09/26 03:27:33;;;;;;;1.40;1.30;;;;;;;9.10;93.48;99115.19;4138038;28;20269;-49
2023/09/26 03:29:35;;;;;;;0.80;0.80;;;;;;;9.09;93.85;99112.69;4157585;28;20247;-47
2023/09/26 03:31:41;;;;;;;1.02;1.00;;;;;;;9.12;94.32;99117.66;4175053;28;20215;-47
2023/09/26 03:33:43;;;;;;;1.00;1.00;;;;;;;9.06;93.89;99118.56;4151645;28;20677;-47
2023/09/26 03:35:45;;;;;;;1.40;1.40;;;;;;;9.07;93.74;99118.34;4152591;28;20235;-49
2023/09/26 03:37:47;;;;;;;1.60;0.75;;;;;;;9.06;94.06;99115.84;4154627;28;20672;-46
2023/09/26 03:39:49;;;;;;;1.15;1.13;;;;;;;9.08;93.63;99116.47;4157567;28;20212;-51
2023/09/26 03:41:51;;;;;;;1.00;1.00;;;;;;;9.07;94.32;99114.78;4174149;28;20211;-48
2023/09/26 03:43:52;;;;;;;1.20;1.20;;;;;;;9.05;94.01;99116.91;4172149;28;20223;-49
2023/09/26 03:46:01;;;;;;;1.38;1.00;;;;;;;9.06;93.88;99108.50;4140000;28;20251;-48
2023/09/26 03:48:03;;;;;;;1.08;1.08;;;;;;;9.05;93.91;99122.38;4149621;28;20347;-47
2023/09/26 03:50:06;;;;;;;1.23;1.13;;;;;;;9.00;93.78;99109.41;4155982;28;20209;-50
2023/09/26 03:52:08;;;;;;;1.27;1.23;;;;;;;9.00;93.79;99114.00;4156640;28;20631;-49
2023/09/26 03:54:10;;;;;;;0.88;0.88;;;;;;;9.03;93.81;99116.31;4155860;28;20548;-47
2023/09/26 03:56:12;;;;;;;0.70;0.70;;;;;;;9.10;93.52;99111.59;4171831;28;20782;-47
2023/09/26 03:58:13;;;;;;;1.35;1.25;;;;;;;9.03;93.12;99105.38;4172850;28;20647;-47
2023/09/26 04:00:16;;;;;;;0.82;0.82;;;;;;;9.00;93.22;99108.56;4173149;28;20219;-51
2023/09/26 04:02:18;;;;;;;1.58;1.48;;;;;;;8.89;92.81;99107.41;4172038;28;20214;-48
2023/09/26 04:04:20;;;;;;;1.02;0.93;;;;;;;8.85;93.01;99106.19;4172208;28;20659;-49
2023/09/26 04:06:22;;;;;;;0.90;0.90;;;;;;;8.88;93.27;99105.75;4171993;28;20220;-48
2023/09/26 04:08:24;;;;;;;1.20;1.20;;;;;;;8.78;95.03;99099.13;4151946;28;20205;-47
2023/09/26 04:10:26;;;;;;;1.33;1.10;;;;;;;8.73;96.11;99109.88;4155593;28;20564;-49
2023/09/26 04:12:27;;;;;;;1.65;1.55;;;;;;;8.78;95.98;99094.50;4154881;28;20639;-48
2023/09/26 04:14:30;;;;;;;1.55;1.45;;;;;;;8.79;95.74;99100.78;4171231;28;20215;-49
2023/09/26 04:16:31;;;;;;;1.00;0.90;;;;;;;8.72;95.69;99100.00;4172745;28;20228;-47
2023/09/26 04:18:33;;;;;;;0.90;0.90;;;;;;;8.70;95.77;99096.69;4154149;28;20317;-50
2023/09/26 04:20:36;;;;;;;0.80;0.80;;;;;;;8.72;95.21;99105.47;4172068;28;20216;-47
2023/09/26 04:22:39;;;;;;;1.00;1.00;;;;;;;8.71;95.02;99103.81;4155818;28;20212;-46
2023/09/26 04:24:40;;;;;;;0.95;0.95;;;;;;;8.73;94.96;99101.69;4154296;28;20204;-47
2023/09/26 04:26:42;;;;;;;1.25;1.23;;;;;;;8.75;94.51;99102.31;4155553;28;20622;-49
2023/09/26 04:28:45;;;;;;;1.10;1.00;;;;;;;8.79;94.65;99104.38;4172752;28;20211;-49
2023/09/26 04:30:47;;;;;;;1.60;1.42;;;;;;;8.72;94.33;99100.00;4156718;28;20227;-47
2023/09/26 04:32:49;;;;;;;1.10;1.10;;;;;;;8.66;93.52;99106.38;4155588;28;20230;-47
2023/09/26 04:34:52;;;;;;;2.05;1.27;;;;;;;8.62;93.45;99108.69;4158701;28;20224;-47
2023/09/26 04:36:54;;;;;;;0.85;0.85;;;;;;;8.58;93.88;99109.38;4157552;28;20287;-46
2023/09/26 04:38:56;;;;;;;1.02;1.02;;;;;;;8.60;94.41;99101.78;4158689;28;20262;-47
2023/09/26 04:41:05;;;;;;;1.67;1.38;;;;;;;8.60;94.57;99101.78;4158257;28;20229;-47
2023/09/26 04:43:06;;;;;;;1.40;1.40;;;;;;;8.62;94.25;99102.44;4155647;28;20208;-46
2023/09/26 04:45:08;;;;;;;1.15;1.15;;;;;;;8.61;94.67;99104.31;4154262;28;20281;-47
2023/09/26 04:47:10;;;;;;;1.35;1.30;;;;;;;8.51;94.15;99108.59;4171904;28;20204;-46
2023/09/26 04:49:12;;;;;;;1.13;1.13;;;;;;;8.45;94.56;99099.44;4158872;28;20295;-48
2023/09/26 04:51:14;;;;;;;1.20;1.20;;;;;;;8.49;95.19;99105.28;4156536;28;20217;-46
2023/09/26 04:53:16;;;;;;;0.98;0.98;;;;;;;8.53;94.72;99101.03;4138387;28;20667;-46
2023/09/26 04:55:18;;;;;;;1.38;1.35;;;;;;;8.49;94.76;99099.81;4156549;28;20228;-46
2023/09/26 04:57:20;;;;;;;0.95;0.95;;;;;;;8.51;94.19;99104.00;4155955;28;20235;-49
2023/09/26 04:59:21;;;;;;;1.25;1.25;;;;;;;8.54;94.65;99095.34;4152343;28;20201;-49
2023/09/26 05:01:26;;;;;;;2.75;1.92;;;;;;;8.50;94.35;99096.03;4152240;28;20224;-48
2023/09/26 05:03:27;;;;;;;1.80;1.70;;;;;;;8.46;94.13;99100.25;4150976;28;20205;-46
2023/09/26 05:05:29;;;;;;;1.20;1.20;;;;;;;8.39;94.58;99102.19;4156300;28;20228;-46
2023/09/26 05:07:31;;;;;;;1.20;1.20;;;;;;;8.40;94.60;99101.97;4153929;28;20216;-46
2023/09/26 05:09:33;;;;;;;1.20;1.17;;;;;;;8.33;94.44;99098.47;4171325;28;20216;-47
2023/09/26 05:11:35;;;;;;;1.33;1.33;;;;;;;8.35;94.08;99093.63;4170514;28;20291;-46
2023/09/26 05:13:36;;;;;;;0.80;0.80;;;;;;;8.34;94.25;99102.03;4154494;28;20672;-46
2023/09/26 05:15:38;;;;;;;1.48;1.38;;;;;;;8.34;94.25;99107.50;4154111;28;20228;-51
2023/09/26 05:17:41;;;;;;;1.00;1.00;;;;;;;8.27;93.51;99101.22;4152630;28;20800;-49
2023/09/26 05:19:43;;;;;;;1.65;1.55;;;;;;;8.24;93.83;99102.53;4152841;28;20681;-50
2023/09/26 05:21:44;;;;;;;1.20;1.10;;;;;;;8.18;94.47;99103.38;4167113;28;20220;-49
2023/09/26 05:23:46;;;;;;;1.13;1.13;;;;;;;8.16;94.03;99110.09;4151603;28;20219;-47
2023/09/26 05:25:48;;;;;;;1.55;1.23;;;;;;;8.13;94.43;99105.06;4151768;28;20734;-46
2023/09/26 05:27:50;;;;;;;1.25;1.17;;;;;;;8.15;94.90;99113.88;4153076;28;20243;-48
2023/09/26 05:29:52;;;;;;;1.00;1.00;;;;;;;8.18;94.98;99102.53;4148544;28;20562;-47
2023/09/26 05:31:53;;;;;;;0.93;0.93;;;;;;;8.19;95.11;99104.19;4151699;28;20266;-49
2023/09/26 05:33:56;;;;;;;1.00;1.00;;;;;;;8.19;94.82;99098.75;4151763;28;20204;-47
2023/09/26 05:35:58;;;;;;;3.42;1.20;;;;;;;8.18;95.10;99107.97;4151297;28;20350;-47
2023/09/26 05:38:00;;;;;;;1.20;1.20;;;;;;;8.21;95.23;99108.41;4154373;28;20271;-49
2023/09/26 05:40:06;;;;;;;1.25;1.15;;;;;;;8.19;95.18;99115.09;4153764;28;20259;-49
2023/09/26 05:42:10;;;;;;;1.15;1.13;;;;;;;8.24;95.58;99101.69;4170478;28;20229;-47
2023/09/26 05:44:12;;;;;;;1.90;1.50;;;;;;;8.21;95.89;99107.59;4157530;28;20295;-49
2023/09/26 05:46:14;;;;;;;1.48;0.95;;;;;;;8.16;96.00;99107.38;4156707;28;20700;-49
2023/09/26 05:48:15;;;;;;;1.55;1.30;;;;;;;8.13;95.71;99115.97;4156451;28;20211;-49
2023/09/26 05:50:17;;;;;;;1.52;1.42;;;;;;;8.17;95.49;99118.06;4151426;28;20276;-47
2023/09/26 05:52:22;;;;;;;1.35;1.30;;;;;;;8.15;95.13;99119.34;4156703;28;20215;-46
2023/09/26 05:54:24;;;;;;;1.33;1.27;;;;;;;8.14;95.70;99128.53;4174775;28;20208;-47
2023/09/26 05:56:32;;;;;;;1.33;1.30;;;;;;;8.17;95.81;99133.56;4155845;28;20204;-49
2023/09/26 05:58:34;;;;;;;1.08;1.08;;;;;;;8.09;96.50;99125.66;4174291;28;20222;-46
2023/09/26 06:00:36;;;;;;;1.52;1.30;;;;;;;8.07;96.65;99128.59;4157802;28;20214;-46
2023/09/26 06:02:39;;;;;;;1.50;1.40;;;;;;;8.10;96.41;99130.06;4157305;28;20295;-47
2023/09/26 06:04:42;;;;;;;1.15;1.10;;;;;;;8.16;96.69;99126.47;4159056;28;20258;-49
2023/09/26 06:06:44;;;;;;;2.10;1.48;;;;;;;8.16;96.89;99131.91;4157859;28;20398;-48
2023/09/26 06:08:46;;;;;;;2.83;2.65;;;;;;;8.16;97.29;99127.28;4158336;28;20265;-47
2023/09/26 06:10:54;;;;;;;1.90;1.67;;;;;;;8.24;97.56;99128.94;4156798;28;20212;-48
2023/09/26 06:12:56;;;;;;;1.70;1.60;;;;;;;8.25;97.99;99131.47;4157400;28;20238;-47
2023/09/26 06:14:58;;;;;;;2.08;1.98;;;;;;;8.29;98.26;99131.84;4157645;28;20260;-47
2023/09/26 06:17:00;;;;;;;1.60;1.50;;;;;;;8.29;98.17;99140.84;4151725;28;20229;-46
2023/09/26 06:19:02;;;;;;;1.83;1.70;;;;;;;8.43;98.01;99127.97;4178084;28;20243;-48
2023/09/26 06:21:05;;;;;;;2.40;2.20;;;;;;;8.52;98.50;99132.94;4159037;28;20892;-48
2023/09/26 06:23:06;;;;;;;2.15;2.05;;;;;;;8.75;99.27;99133.16;4158478;28;20928;-49
2023/09/26 06:25:08;;;;;;;6.05;1.70;;;;;;;8.95;100.00;99128.34;4156888;28;20284;-48
2023/09/26 06:27:11;;;;;;;7.55;1.55;;;;;;;9.80;100.00;99136.41;4177605;28;20200;-48
2023/09/26 06:29:13;;;;;;;1.77;1.67;;;;;;;10.40;100.00;99140.00;4177973;28;20705;-47
2023/09/26 06:31:15;;;;;;;1.30;1.20;;;;;;;10.96;99.27;99136.53;4160911;28;20212;-47
2023/09/26 06:33:20;;;;;;;6.35;1.60;;;;;;;10.81;93.38;99135.31;4163305;28;20209;-48
2023/09/26 06:35:22;;;;;;;4.82;1.50;;;;;;;10.97;92.62;99143.66;4137674;28;20725;-47
2023/09/26 06:37:24;;;;;;;1.70;1.40;;;;;;;11.09;91.87;99133.56;4161796;28;20707;-49
2023/09/26 06:39:40;;;;;;;1.00;0.95;;;;;;;11.82;89.79;99137.44;4164445;28;20205;-45
2023/09/26 06:41:53;;;;;;;4.25;1.58;;;;;;;12.13;86.28;99139.72;4160959;28;20544;-47
2023/09/26 06:43:58;;;;;;;1.58;1.48;;;;;;;12.88;86.37;99138.31;4159216;28;20209;-47
2023/09/26 06:46:09;;;;;;;8.45;1.63;;;;;;;13.33;83.27;99141.84;4141626;28;20305;-48
2023/09/26 06:48:11;;;;;;;2.10;1.30;;;;;;;13.88;81.29;99145.34;4176116;28;20208;-47
2023/09/26 06:50:13;;;;;;;1.00;0.90;;;;;;;14.24;77.75;99144.69;4160007;28;20212;-48
2023/09/26 06:52:15;;;;;;;1.02;1.02;;;;;;;14.55;73.88;99146.69;4178188;28;20278;-47
2023/09/26 06:54:20;;;;;;;3.60;1.10;;;;;;;14.74;74.89;99136.13;4162316;28;20216;-47
2023/09/26 06:56:23;;;;;;;1.42;1.10;;;;;;;14.79;71.41;99142.53;4162035;28;20278;-47
2023/09/26 06:58:26;;;;;;;1.15;0.95;;;;;;;15.26;71.69;99137.97;4150430;28;20797;-47
2023/09/26 07:00:32;;;;;;;2.17;0.98;;;;;;;14.85;71.31;99133.22;4163237;28;20918;-46
2023/09/26 07:02:39;;;;;;;2.17;1.40;;;;;;;15.54;69.94;99134.88;4146379;28;20268;-48
2023/09/26 07:04:42;;;;;;;6.15;1.20;;;;;;;15.38;70.10;99138.63;4161100;28;20208;-46
2023/09/26 07:06:45;;;;;;;1.42;1.33;;;;;;;15.46;69.84;99132.63;4163084;28;20565;-46
2023/09/26 07:08:54;;;;;;;1.45;1.35;;;;;;;15.75;68.18;99135.81;4163412;28;20204;-47
2023/09/26 07:11:03;;;;;;;1.33;1.23;;;;;;;15.67;69.70;99136.31;4161693;28;20196;-47
2023/09/26 07:13:08;;;;;;;1.65;1.13;;;;;;;16.12;67.67;99125.47;4176854;28;20210;-46
2023/09/26 07:15:31;;;;;;;0.95;0.95;;;;;;;15.41;69.41;99140.84;4153807;28;20322;-46
2023/09/26 07:17:33;;;;;;;1.45;1.15;;;;;;;15.10;71.73;99127.09;4159518;28;20322;-46
2023/09/26 07:19:39;;;;;;;0.93;0.93;;;;;;;15.35;71.96;99133.63;4176680;28;20204;-45
2023/09/26 07:21:41;;;;;;;1.23;1.08;;;;;;;14.42;76.09;99135.28;4159743;28;20283;-47
2023/09/26 07:23:43;;;;;;;2.38;1.33;;;;;;;14.75;73.88;99127.59;4159622;28;20212;-47
2023/09/26 07:25:48;;;;;;;0.95;0.80;;;;;;;14.76;76.93;99136.72;4159792;28;20729;-46
2023/09/26 07:27:50;;;;;;;2.38;1.35;;;;;;;14.80;76.78;99133.16;4176394;28;20226;-46
2023/09/26 07:29:53;;;;;;;1.48;1.27;;;;;;;14.90;77.25;99138.75;4143456;28;20222;-46
2023/09/26 07:31:55;;;;;;;1.15;1.05;;;;;;;14.76;77.90;99125.69;4144354;28;20209;-49
2023/09/26 07:33:57;;;;;;;2.17;1.10;;;;;;;14.75;75.06;99130.38;4161443;28;20216;-47
2023/09/26 07:36:04;;;;;;;1.50;1.40;;;;;;;14.96;77.06;99132.19;4162003;28;20263;-45
2023/09/26 07:38:06;;;;;;;1.40;1.17;;;;;;;15.57;75.00;99134.31;4177409;28;20255;-46
2023/09/26 07:40:09;;;;;;;1.15;0.95;;;;;;;15.82;73.25;99134.47;4163437;28;20211;-47
2023/09/26 07:42:19;;;;;;;1.17;0.95;;;;;;;17.24;70.05;99125.13;4154061;28;20201;-48
2023/09/26 07:44:40;;;;;;;1.23;1.13;;;;;;;16.94;70.65;99129.81;4160880;28;20200;-47
2023/09/26 07:46:51;;;;;;;1.17;1.08;;;;;;;18.01;67.51;99130.22;4162650;28;20243;-46
2023/09/26 07:48:54;;;;;;;1.50;1.25;;;;;;;18.58;64.33;99131.34;4161544;28;20204;-47
2023/09/26 07:50:56;;;;;;;0.70;0.70;;;;;;;18.93;64.00;99133.84;4161307;28;20291;-48
2023/09/26 07:53:04;;;;;;;3.30;1.10;;;;;;;18.89;63.87;99132.81;4163004;28;20247;-45
2023/09/26 07:55:12;;;;;;;0.93;0.90;;;;;;;19.64;60.48;99134.94;4161490;28;20224;-46
2023/09/26 07:57:21;;;;;;;1.08;1.00;;;;;;;18.55;65.23;99136.63;4162240;28;20283;-47
2023/09/26 07:59:23;;;;;;;0.95;0.85;;;;;;;19.16;62.81;99126.75;4161291;28;20205;-47
2023/09/26 08:01:25;;;;;;;1.35;1.25;;;;;;;19.78;60.42;99130.31;4161003;28;20200;-46
2023/09/26 08:03:27;;;;;;;2.25;1.15;;;;;;;20.55;58.17;99129.09;4160898;28;20260;-46
2023/09/26 08:05:31;;;;;;;1.35;0.90;;;;;;;20.19;61.58;99130.72;4143014;28;20762;-46
2023/09/26 08:07:33;;;;;;;1.10;0.98;;;;;;;20.46;57.45;99130.91;4160937;28;20203;-46
2023/09/26 08:09:35;;;;;;;1.10;0.98;;;;;;;20.37;58.15;99132.72;4161030;28;20204;-46
2023/09/26 08:11:38;;;;;;;0.80;0.80;;;;;;;19.78;60.56;99129.50;4160286;28;20204;-46
2023/09/26 08:13:45;;;;;;;1.30;1.10;;;;;;;19.34;61.98;99123.28;4164076;28;20264;-48
2023/09/26 08:15:47;;;;;;;5.18;0.98;;;;;;;20.80;58.74;99124.03;4158422;28;20232;-47
2023/09/26 08:17:48;;;;;;;2.17;0.93;;;;;;;21.32;57.32;99128.50;4159319;28;20505;-47
2023/09/26 08:19:50;;;;;;;1.13;1.02;;;;;;;20.44;61.05;99127.63;4161194;28;20286;-50
2023/09/26 08:21:52;;;;;;;1.48;0.80;;;;;;;20.84;60.28;99127.03;4159729;28;20247;-46
2023/09/26 08:23:54;;;;;;;2.33;1.27;;;;;;;21.19;58.05;99123.69;4161936;28;20310;-46
2023/09/26 08:26:00;;;;;;;0.82;0.82;;;;;;;20.98;59.83;99111.25;4159200;28;20238;-49
2023/09/26 08:28:06;;;;;;;1.17;0.90;;;;;;;21.13;58.11;99119.34;4160560;28;20201;-47
2023/09/26 08:30:11;;;;;;;2.30;0.80;;;;;;;20.46;60.47;99117.00;4161088;28;20284;-47
2023/09/26 08:32:17;;;;;;;1.25;0.70;;;;;;;21.27;58.58;99114.66;4176661;28;20253;-47
2023/09/26 08:34:19;;;;;;;0.70;0.70;;;;;;;22.21;55.77;99113.97;4137687;28;20292;-46
2023/09/26 08:36:22;;;;;;;1.55;1.00;;;;;;;21.76;57.38;99109.31;4160764;28;20228;-47
2023/09/26 08:38:24;;;;;;;1.73;0.80;;;;;;;22.15;56.57;99109.63;4160921;28;20231;-46
2023/09/26 08:40:26;;;;;;;1.08;0.80;;;;;;;21.44;57.08;99106.56;4157934;28;20208;-46
2023/09/26 08:42:28;;;;;;;1.70;1.13;;;;;;;20.34;61.55;99111.06;4159429;28;20208;-47
2023/09/26 08:44:31;;;;;;;1.80;0.98;;;;;;;21.47;59.75;99098.41;4147448;28;20296;-47
2023/09/26 08:46:33;;;;;;;1.55;1.10;;;;;;;22.32;56.19;99112.63;4158617;28;20215;-47
2023/09/26 08:48:36;;;;;;;4.75;0.88;;;;;;;21.16;58.30;99104.81;4156284;28;20211;-47
2023/09/26 08:50:38;;;;;;;0.80;0.80;;;;;;;20.90;60.94;99109.97;4144421;28;20664;-46
2023/09/26 08:52:40;;;;;;;0.70;0.70;;;;;;;22.15;58.34;99106.84;4157748;28;20228;-47
2023/09/26 08:54:42;;;;;;;1.83;0.80;;;;;;;22.29;58.71;99093.72;4175022;28;20667;-46
2023/09/26 08:56:45;;;;;;;1.20;1.05;;;;;;;22.84;57.30;99098.88;4176442;28;20242;-49
2023/09/26 08:58:50;;;;;;;1.90;0.85;;;;;;;23.07;57.18;99094.16;4159816;28;20274;-47
2023/09/26 09:00:52;;;;;;;1.00;0.85;;;;;;;22.92;55.68;99091.72;4152615;28;20283;-46
2023/09/26 09:02:54;;;;;;;1.10;0.80;;;;;;;22.11;59.17;99097.47;4159424;28;20200;-46
2023/09/26 09:04:56;;;;;;;1.08;0.98;;;;;;;22.42;57.98;99090.06;4160105;28;20235;-46
2023/09/26 09:07:03;;;;;;;1.00;0.90;;;;;;;23.42;54.76;99084.88;4159260;28;20212;-49
2023/09/26 09:09:09;;;;;;;1.23;1.08;;;;;;;23.63;54.60;99086.00;4154612;28;20210;-46
2023/09/26 09:11:12;;;;;;;1.58;1.30;;;;;;;23.12;57.06;99080.06;4160849;28;20228;-46
2023/09/26 09:13:28;;;;;;;0.70;0.70;;;;;;;23.55;56.76;99083.97;4160335;28;20628;-46
2023/09/26 09:15:30;;;;;;;0.95;0.73;;;;;;;23.98;54.11;99089.47;4160602;28;20878;-47
2023/09/26 09:17:42;;;;;;;0.70;0.70;;;;;;;23.98;55.38;99087.84;4160525;28;20203;-47
2023/09/26 09:19:48;;;;;;;1.60;0.70;;;;;;;23.52;56.35;99079.03;4159638;28;20571;-46
2023/09/26 09:21:50;;;;;;;1.55;0.90;;;;;;;23.45;55.49;99089.84;4162251;28;20303;-47
2023/09/26 09:23:53;;;;;;;2.20;1.25;;;;;;;22.63;57.67;99085.75;4161108;28;20266;-48
2023/09/26 09:26:10;;;;;;;1.33;0.63;;;;;;;23.68;54.77;99083.91;4151905;28;20223;-46
2023/09/26 09:28:18;;;;;;;1.08;0.80;;;;;;;22.98;56.44;99073.72;4176843;28;20281;-46
2023/09/26 09:30:22;;;;;;;1.23;1.13;;;;;;;22.45;59.20;99075.56;4157653;28;20230;-46
2023/09/26 09:32:26;;;;;;;4.60;1.10;;;;;;;22.51;57.60;99079.88;4159689;28;20207;-46
2023/09/26 09:34:28;;;;;;;0.88;0.65;;;;;;;23.14;57.97;99077.75;4141980;28;20627;-46
2023/09/26 09:36:30;;;;;;;1.08;0.98;;;;;;;23.92;55.10;99084.38;4139288;28;20229;-46
2023/09/26 09:38:32;;;;;;;1.17;0.93;;;;;;;23.47;54.76;99077.22;4155340;28;20586;-47
2023/09/26 09:40:34;;;;;;;0.80;0.80;;;;;;;22.76;56.88;99079.28;4156283;28;20211;-46
2023/09/26 09:42:36;;;;;;;1.60;0.70;;;;;;;23.64;56.03;99076.47;4157291;28;20679;-48